Main page
METAR-TAF:

METAR-TAF

Airports :

Stony Rapids Airport

Stony Rapids, Saskatchewan, Canada

latitude: 59-15N, longitude: 105-50W, elevation: 250 m

Current weather observation

The report was made 59 minutes ago, at 17:00 UTC
Wind 7 kt from the East
Temperature -8°C
Humidity 92%
Pressure 1013 hPa
Visibility: 14.5 km
Overcast at a height of 1100 ft

METAR: CYSF 251700Z AUTO 08007KT 9SM OVC011 M08/M09 A2990 RMK SLP149

Time: 11:59 (17:59 UTC)

Forecast

The report was made 15 minutes ago, at 17:44 UTC
Forecast valid from 25 at 18 UTC to 26 at 06 UTC
Wind 8 kt from the East
Visibility: 10 km
Broken clouds at a height of 1500 ft
Temporary
from 25 at 18 UTC to 26 at 06 UTC
Visibility: 10 km
Broken clouds at a height of 800 ft
light snow

TAF: CYSF 251744Z 2518/2606 08008KT P6SM BKN015 TEMPO 2518/2606 P6SM -SN BKN008 RMK FCST BASED ON AUTO OBS. NXT FCST BY 260000Z

Weather observations and forecasts of more than 4000 airports (METAR and TAF reports).

The available stations are represented by yellow and red dots on the map.

Hover mouse over dot to see the name of the station.

Then click to see weather observations and forecasts.

To change the map : click on the green buttons with a black cross to zoom in, on the green button with a dash to zoom out, or on the green arrows for adjacent maps.


METAR-TAF: